Latest Weather Observations for Giles*

IDW60801

Issued at 4:02 pm WST Tuesday 24 May 2016 (issued every 30 minutes, with the page automatically refreshed every 10 minutes)

About weather observations | Map of weather stations | Latest weather observations for WA | Other Formats
Station Details ID: 013017 Name: GILES METEOROLOGICAL OFFICE Lat: -25.03 Lon: 128.30 Height: 598.0 m
Data from the previous 72 hours. | See also: Recent months at Giles*

* Giles observations are collected in the South Australia time zone, which includes daylight saving in the summer period. Therefore, Rain since 9am value is with respect to South Australia local time.

Date/Time
WST
Temp
°C
App
Temp
°C
Dew
Point
Rel
Hum
%
Delta-T
°C
Wind Press
QNH
hPa
Press
MSL
hPa
Rain
since 9 am
mm
Dir
 
Spd
km/h
Gust
km/h
Spd
kts
Gust
kts
24/04:00pm 25.8 21.2 8.0 32 9.8 N 22 30 12 16 1015.8 1013.9 0.0
24/03:30pm 25.6 21.5 7.9 32 9.7 NNE 19 24 10 13 1015.8 1013.9 0.0
24/03:00pm 25.4 21.0 7.6 32 9.7 N 20 30 11 16 1015.9 1014.0 0.0
24/02:30pm 24.9 19.6 6.8 31 9.7 N 24 30 13 16 1016.2 1014.4 0.0
24/02:00pm 25.1 19.3 6.3 30 10.0 N 26 33 14 18 1016.2 1014.4 0.0
24/01:30pm 24.4 18.5 5.7 30 9.8 N 26 41 14 22 1016.4 1014.6 0.0
24/01:00pm 24.1 17.3 5.2 29 9.8 N 30 41 16 22 1016.8 1015.0 0.0
24/12:30pm 23.7 16.5 4.8 29 9.7 N 32 41 17 22 1017.1 1015.3 0.0
24/12:00pm 22.5 16.0 4.5 31 9.1 N 28 37 15 20 1017.8 1016.0 0.0
24/11:30am 22.3 15.8 4.5 31 9.0 N 28 37 15 20 1018.3 1016.5 0.0
24/11:00am 22.5 15.5 3.9 29 9.3 N 30 39 16 21 1018.7 1016.9 0.0
24/10:30am 23.3 17.1 4.4 29 9.6 NNE 26 43 14 23 1019.2 1017.4 0.0
24/10:00am 22.4 15.3 3.7 29 9.3 NNE 30 43 16 23 1019.5 1017.7 0.0
24/09:30am 20.9 13.8 3.6 32 8.5 NNE 30 48 16 26 1019.7 1017.9 0.0
24/09:26am 21.3 14.5 3.1 30 8.9 NNE 28 48 15 26 1019.7 1017.9 0.0
24/09:00am 21.0 15.9 4.1 33 8.4 NNE 20 32 11 17 1020.0 1018.2 0.0
24/08:30am 19.0 17.5 5.2 40 6.9 SW 2 7 1 4 1020.3 1018.5 0.0
24/08:00am 18.4 16.3 5.9 44 6.3 WNW 6 11 3 6 1020.2 1018.4 0.0
24/07:30am 16.9 14.4 4.9 45 5.9 ENE 7 11 4 6 1020.0 1018.2 0.0
24/07:00am 15.9 14.9 5.6 50 5.1 CALM 0 6 0 3 1020.1 1018.3 0.0
24/06:30am 14.9 11.2 4.2 48 5.1 E 13 17 7 9 1019.7 1017.9 0.0
24/06:00am 14.1 10.8 4.7 53 4.5 E 11 13 6 7 1019.5 1017.7 0.0
24/05:30am 14.7 10.5 3.9 48 5.1 E 15 17 8 9 1018.9 1017.1 0.0
24/05:00am 15.4 11.5 3.3 44 5.7 E 13 17 7 9 1018.9 1017.1 0.0
24/04:30am 15.0 11.7 4.3 48 5.1 ESE 11 13 6 7 1018.7 1016.9 0.0
24/04:00am 15.2 12.0 5.1 51 4.9 ESE 11 13 6 7 1018.7 1016.9 0.0
24/03:30am 16.8 13.1 4.5 44 6.0 E 13 17 7 9 1018.9 1017.1 0.0
24/03:00am 16.7 13.1 4.9 45 5.8 E 13 19 7 10 1018.8 1017.0 0.0
24/02:30am 17.3 13.0 5.2 45 6.0 E 17 20 9 11 1018.6 1016.8 0.0
24/02:00am 17.5 13.0 6.0 46 5.8 ENE 19 24 10 13 1018.8 1017.0 0.0
24/01:30am 17.0 12.7 7.1 52 5.1 ENE 19 24 10 13 1018.7 1016.9 0.0
24/01:00am 16.0 11.9 7.9 58 4.2 ENE 19 22 10 12 1018.9 1017.1 0.0
24/12:30am 16.5 12.3 8.3 58 4.3 E 20 26 11 14 1018.9 1017.1 0.0
24/12:00am 17.2 13.2 8.9 58 4.4 ENE 20 26 11 14 1019.4 1017.6 0.0
 
Date/Time
WST
Temp
°C
App
Temp
°C
Dew
Point
Rel
Hum
%
Delta-T
°C
Wind Press
QNH
hPa
Press
MSL
hPa
Rain
since 9 am
mm
Dir
 
Spd
km/h
Gust
km/h
Spd
kts
Gust
kts
23/11:30pm 17.3 15.2 9.7 61 4.1 ENE 11 17 6 9 1020.0 1018.2 0.0
23/11:00pm 17.6 15.5 9.6 59 4.3 ENE 11 15 6 8 1020.1 1018.3 0.0
23/10:30pm 18.0 14.7 9.5 57 4.6 ENE 17 22 9 12 1020.1 1018.3 0.0
23/10:00pm 18.5 14.8 9.4 55 4.9 E 19 26 10 14 1020.4 1018.6 0.0
23/09:30pm 19.1 16.5 9.5 53 5.2 ENE 13 20 7 11 1020.6 1018.9 0.0
23/09:00pm 19.7 16.4 9.6 52 5.5 ENE 17 20 9 11 1021.0 1019.2 0.0
23/08:30pm 20.0 17.1 9.8 52 5.6 E 15 22 8 12 1021.2 1019.4 0.0
23/08:00pm 20.4 18.8 10.3 52 5.6 ENE 9 13 5 7 1021.4 1019.6 0.0
23/07:30pm 20.7 18.7 10.0 50 5.9 E 11 15 6 8 1021.4 1019.6 0.0
23/07:00pm 20.9 18.9 10.3 50 5.9 ENE 11 15 6 8 1021.3 1019.5 0.0
23/06:30pm 20.9 18.6 10.5 51 5.8 E 13 17 7 9 1021.1 1019.3 0.0
23/06:00pm 20.7 19.3 10.9 53 5.5 E 9 11 5 6 1020.6 1018.9 0.0
23/05:30pm 21.6 20.8 11.6 53 5.7 NE 7 9 4 5 1020.5 1018.7 0.0
23/05:00pm 22.1 20.8 11.4 50 6.1 NE 9 11 5 6 1020.3 1018.5 0.0
23/04:30pm 22.5 21.2 11.3 49 6.4 N 9 11 5 6 1020.2 1018.4 0.0
23/04:00pm 23.3 21.4 10.6 44 7.2 N 11 13 6 7 1020.2 1018.4 0.0
23/03:30pm 23.8 21.0 10.1 42 7.7 N 15 24 8 13 1020.1 1018.3 0.0
23/03:00pm 23.8 20.7 10.4 42 7.6 N 17 24 9 13 1019.9 1018.1 0.0
23/02:30pm 24.2 19.7 10.0 40 8.0 N 24 32 13 17 1019.8 1018.0 0.0
23/02:00pm 24.3 20.5 9.9 40 8.1 N 20 28 11 15 1020.0 1018.2 0.0
23/01:30pm 25.0 21.4 10.0 38 8.5 NNE 19 28 10 15 1020.3 1018.5 0.0
23/01:00pm 24.3 20.7 9.9 40 8.1 NNE 19 26 10 14 1020.4 1018.6 0.0
23/12:30pm 23.6 20.0 9.9 42 7.7 NE 19 24 10 13 1020.7 1019.0 0.0
23/12:00pm 23.8 20.0 9.7 40 7.9 NE 20 28 11 15 1021.1 1019.3 0.0
23/11:30am 24.2 20.3 9.3 38 8.3 NNE 20 32 11 17 1021.4 1019.6 0.0
23/11:00am 23.0 19.0 9.0 41 7.7 NE 20 30 11 16 1021.8 1020.0 0.0
23/10:30am 22.4 18.5 8.6 41 7.5 ENE 19 30 10 16 1022.0 1020.2 0.0
23/10:00am 21.2 17.5 8.1 43 7.0 E 17 24 9 13 1022.1 1020.4 0.0
23/09:30am 19.9 15.7 7.5 44 6.5 ENE 19 24 10 13 1022.7 1020.9 0.0
23/09:00am 18.1 13.5 5.8 44 6.2 E 19 22 10 12 1022.8 1021.0 0.0
23/08:30am 17.6 14.4 5.0 43 6.2 ESE 11 17 6 9 1023.0 1021.2 0.0
23/08:00am 16.9 12.3 3.7 41 6.3 ESE 17 24 9 13 1022.3 1020.6 0.0
23/07:30am 15.2 10.6 3.5 45 5.5 ESE 17 24 9 13 1021.9 1020.1 0.0
23/07:00am 13.8 9.1 3.2 48 4.9 ESE 17 24 9 13 1021.9 1020.1 0.0
23/06:30am 12.7 9.4 4.4 57 3.9 ESE 11 15 6 8 1021.8 1020.0 0.0
23/06:00am 12.4 9.5 4.5 58 3.7 E 9 11 5 6 1021.7 1019.9 0.0
23/05:30am 12.4 9.1 4.3 57 3.8 E 11 15 6 8 1021.3 1019.5 0.0
23/05:00am 12.2 9.2 4.3 58 3.7 ESE 9 13 5 7 1021.2 1019.4 0.0
23/04:30am 12.2 9.2 4.3 58 3.7 E 9 17 5 9 1021.2 1019.4 0.0
23/04:00am 12.2 7.2 3.8 56 3.9 SE 19 24 10 13 1021.1 1019.3 0.0
23/03:30am 12.0 8.3 4.5 60 3.5 SE 13 20 7 11 1021.0 1019.2 0.0
23/03:00am 12.4 8.0 5.0 60 3.5 SE 17 20 9 11 1020.9 1019.1 0.0
23/02:30am 12.9 8.6 5.2 59 3.7 SE 17 20 9 11 1021.2 1019.4 0.0
23/02:00am 12.6 9.7 6.7 67 2.9 SE 11 15 6 8 1021.6 1019.8 0.0
23/01:30am 13.2 10.3 6.7 64 3.2 ESE 11 15 6 8 1021.5 1019.7 0.0
23/01:00am 13.6 10.0 6.8 63 3.4 SE 15 19 8 10 1021.3 1019.5 0.0
23/12:30am 13.4 10.6 7.0 65 3.2 ESE 11 13 6 7 1021.4 1019.6 0.0
23/12:00am 13.7 10.9 7.1 64 3.3 SE 11 15 6 8 1021.4 1019.6 0.0
 
Date/Time
WST
Temp
°C
App
Temp
°C
Dew
Point
Rel
Hum
%
Delta-T
°C
Wind Press
QNH
hPa
Press
MSL
hPa
Rain
since 9 am
mm
Dir
 
Spd
km/h
Gust
km/h
Spd
kts
Gust
kts
22/11:30pm 14.6 11.8 7.1 60 3.8 ESE 11 15 6 8 1021.2 1019.4 0.0
22/11:00pm 15.0 12.2 7.1 59 4.0 ESE 11 13 6 7 1021.3 1019.5 0.0
22/10:30pm 15.3 12.6 7.2 58 4.1 ESE 11 20 6 11 1021.1 1019.3 0.0
22/10:00pm 15.0 12.7 7.6 61 3.8 ESE 9 11 5 6 1021.1 1019.3 0.0
22/09:30pm 15.4 12.8 7.6 59 4.0 ESE 11 13 6 7 1021.0 1019.2 0.0
22/09:00pm 15.5 13.0 8.2 62 3.8 SE 11 11 6 6 1020.9 1019.1 0.0
22/08:30pm 16.2 13.2 7.7 57 4.4 ESE 13 15 7 8 1020.7 1019.0 0.0
22/08:00pm 16.4 13.8 7.9 57 4.4 ESE 11 13 6 7 1020.6 1018.9 0.0
22/07:30pm 16.9 14.3 7.9 55 4.7 ESE 11 11 6 6 1020.3 1018.5 0.0
22/07:00pm 17.1 14.5 7.9 54 4.8 SE 11 13 6 7 1020.0 1018.2 0.0
22/06:30pm 17.8 15.3 8.1 53 5.1 ESE 11 13 6 7 1019.9 1018.1 0.0
22/06:00pm 18.8 16.1 7.5 47 5.9 SE 11 13 6 7 1019.6 1017.8 0.0
22/05:30pm 19.5 16.8 7.5 45 6.3 SE 11 13 6 7 1019.4 1017.6 0.0
22/05:00pm 20.5 18.2 7.4 42 6.9 SE 9 13 5 7 1019.1 1017.2 0.0
22/04:30pm 22.1 18.8 6.4 36 8.2 SSE 13 17 7 9 1018.8 1017.0 0.0
22/04:00pm 22.9 18.7 5.8 33 8.9 SSE 17 24 9 13 1018.5 1016.7 0.0
22/03:30pm 23.4 18.9 6.0 32 9.1 SSE 19 26 10 14 1018.4 1016.6 0.0
22/03:00pm 23.8 19.3 6.1 32 9.3 SSE 19 28 10 15 1018.3 1016.5 0.0
22/02:30pm 23.5 18.8 6.2 32 9.1 S 20 26 11 14 1018.3 1016.5 0.0
22/02:00pm 23.5 19.4 6.2 32 9.1 S 17 24 9 13 1018.2 1016.4 0.0
22/01:30pm 23.6 18.6 6.3 32 9.1 S 22 28 12 15 1018.2 1016.4 0.0
22/01:00pm 23.2 18.2 6.5 34 8.8 S 22 33 12 18 1018.2 1016.4 0.0
22/12:30pm 23.9 19.3 6.5 32 9.2 S 20 32 11 17 1018.3 1016.5 0.0
22/12:00pm 23.2 18.2 4.8 30 9.4 S 20 32 11 17 1018.6 1016.8 0.0
22/11:30am 24.0 17.6 3.4 26 10.3 S 26 37 14 20 1018.9 1017.1 0.0
22/11:00am 24.1 17.7 3.3 25 10.4 S 26 35 14 19 1018.9 1017.1 0.0
22/10:30am 23.4 17.5 3.9 28 9.8 S 24 35 13 19 1019.1 1017.2 0.0
22/10:00am 24.8 19.1 4.9 27 10.3 SSW 24 33 13 18 1018.7 1016.9 0.0
22/09:30am 24.2 19.9 9.3 38 8.3 S 22 32 12 17 1018.6 1016.8 0.0
22/09:00am 23.2 18.4 10.2 43 7.3 SW 26 37 14 20 1018.4 1016.6 0.0
22/08:30am 22.6 19.3 9.6 43 7.2 WNW 17 26 9 14 1018.0 1016.2 0.0
22/08:00am 22.4 18.5 9.4 43 7.2 NNW 20 26 11 14 1016.9 1015.1 0.0
22/07:30am 21.7 17.3 8.9 44 7.0 NNW 22 30 12 16 1016.8 1015.0 0.0
22/07:00am 21.0 17.0 9.1 46 6.5 NNW 20 28 11 15 1016.4 1014.6 0.0
22/06:30am 21.9 17.9 9.2 44 7.0 NNW 20 28 11 15 1015.8 1013.9 0.0
22/06:00am 20.6 16.8 9.0 47 6.3 NNW 19 26 10 14 1015.4 1013.6 0.0
22/05:30am 19.8 16.0 9.1 50 5.8 NNW 19 20 10 11 1014.9 1013.1 0.0
22/05:00am 19.9 16.5 9.3 50 5.8 NNW 17 20 9 11 1014.9 1013.1 0.0
22/04:30am 21.0 17.6 9.1 46 6.5 NNW 17 24 9 13 1014.7 1012.8 0.0
22/04:00am 21.5 17.5 8.9 44 6.9 NNW 20 26 11 14 1014.5 1012.6 0.0
22/03:30am 21.3 17.4 8.8 44 6.8 NNW 19 24 10 13 1014.3 1012.4 0.0
22/03:00am 20.9 17.0 8.7 45 6.6 NNW 19 26 10 14 1014.3 1012.4 0.0
22/02:30am 20.6 17.2 9.0 47 6.3 N 17 24 9 13 1014.5 1012.6 0.0
22/02:00am 21.0 16.2 7.2 41 7.3 NNW 22 32 12 17 1014.9 1013.1 0.0
22/01:30am 21.6 17.4 7.5 40 7.5 NNW 19 24 10 13 1014.2 1012.3 0.0
22/01:00am 20.8 15.8 7.9 43 6.9 NNW 24 32 13 17 1014.7 1012.8 0.0
22/12:30am 21.6 16.9 6.0 36 8.1 N 20 28 11 15 1014.7 1012.8 0.0
22/12:00am 20.6 17.3 6.3 39 7.4 NNW 13 17 7 9 1014.8 1013.0 0.0
 
Date/Time
WST
Temp
°C
App
Temp
°C
Dew
Point
Rel
Hum
%
Delta-T
°C
Wind Press
QNH
hPa
Press
MSL
hPa
Rain
since 9 am
mm
Dir
 
Spd
km/h
Gust
km/h
Spd
kts
Gust
kts
21/11:30pm 21.7 16.9 5.8 35 8.2 N 20 28 11 15 1014.8 1013.0 0.0
21/11:00pm 21.2 16.7 6.1 37 7.8 NNW 19 24 10 13 1015.1 1013.3 0.0
21/10:30pm 21.7 16.9 5.8 35 8.2 NNW 20 30 11 16 1015.1 1013.3 0.0
21/10:00pm 22.5 17.7 5.7 33 8.7 NNW 20 28 11 15 1015.3 1013.5 0.0
21/09:30pm 22.1 17.9 5.9 35 8.4 NNW 17 24 9 13 1015.2 1013.4 0.0
21/09:00pm 21.4 18.5 6.5 38 7.8 NNW 11 15 6 8 1015.2 1013.4 0.0
21/08:30pm 20.9 18.1 7.0 40 7.3 N 11 13 6 7 1015.0 1013.2 0.0
21/08:00pm 22.4 18.7 6.1 34 8.5 NNW 15 19 8 10 1014.7 1012.8 0.0
21/07:30pm 23.1 18.9 5.8 32 9.0 N 17 20 9 11 1014.7 1012.8 0.0
21/07:00pm 24.3 19.4 5.3 29 9.9 NNW 20 26 11 14 1014.3 1012.4 0.0
21/06:30pm 25.0 20.1 5.0 27 10.4 NNW 20 33 11 18 1014.3 1012.4 0.0
21/06:00pm 25.1 20.2 5.2 27 10.4 NNW 20 24 11 13 1014.1 1012.2 0.0
21/05:30pm 25.1 21.1 4.9 27 10.5 NNW 15 20 8 11 1013.6 1011.8 0.0
21/05:00pm 25.7 21.3 4.7 26 10.9 NNW 17 24 9 13 1013.3 1011.5 0.0
21/04:30pm 26.1 21.3 4.5 25 11.2 NNW 19 24 10 13 1013.2 1011.3 0.0
21/04:00pm 26.4 21.4 4.4 24 11.4 NNW 20 32 11 17 1012.9 1011.0 0.0
21/03:30pm 27.1 22.0 4.2 23 11.9 N 20 28 11 15 1012.8 1010.9 0.0
21/03:00pm 27.2 20.9 3.7 22 12.1 N 26 33 14 18 1012.8 1010.9 0.0

Other Formats:

Comma delimited format used in spreadsheet applications
http://www.bom.gov.au/fwo/IDW60801/IDW60801.94461.axf

JavaScript Object Notation format (JSON) in row-major order
http://www.bom.gov.au/fwo/IDW60801/IDW60801.94461.json